Time;durP1;ratioP1;P1;durP2;ratioP2;P2;SDS_P1;SDS_P2;PMS_P1;PMS_P2;Temp;Humidity;BMP_temperature;BMP_pressure;BME280_temperature;BME280_humidity;BME280_pressure;Samples;Min_cycle;Max_cycle;Signal;HPM_P1;HPM_P2
2023/01/05 00:01:49;;;;;;;9.93;2.00;;;;;;;;;;5030112;28;20262;-69
2023/01/05 00:04:14;;;;;;;2.00;1.80;;;;;;;;;;5031213;28;20525;-68
2023/01/05 00:06:40;;;;;;;1.90;1.70;;;;;;;;;;5031062;28;20403;-70
2023/01/05 00:09:11;;;;;;;2.60;2.10;;;;;;;;;;5031191;28;20249;-70
2023/01/05 00:22:51;;;;;;;4.30;1.70;;;;;;;;;;5031167;28;21011;-70
2023/01/05 00:25:20;;;;;;;3.23;1.93;;;;;;;;;;5031341;28;20790;-71
2023/01/05 00:27:47;;;;;;;1.93;1.73;;;;;;;;;;5031691;28;20458;-69
2023/01/05 00:30:15;;;;;;;2.67;1.73;;;;;;;;;;5037832;28;20430;-69
2023/01/05 00:32:42;;;;;;;2.90;1.60;;;;;;;;;;5035194;28;20434;-69
2023/01/05 00:35:08;;;;;;;1.73;1.63;;;;;;;;;;5037288;28;20434;-70
2023/01/05 00:37:35;;;;;;;2.00;1.40;;;;;;;;;;5035950;28;20527;-69
2023/01/05 00:40:01;;;;;;;4.13;1.90;;;;;;;;;;5030947;28;20458;-70
2023/01/05 00:42:26;;;;;;;2.37;1.60;;;;;;;;;;5026998;28;20618;-69
2023/01/05 00:44:52;;;;;;;4.03;2.03;;;;;;;;;;5032145;28;20191;-69
2023/01/05 00:47:17;;;;;;;2.73;1.90;;;;;;;;;;5029615;28;20175;-69
2023/01/05 00:49:42;;;;;;;1.63;1.53;;;;;;;;;;5028864;28;20195;-69
2023/01/05 00:52:08;;;;;;;1.70;1.57;;;;;;;;;;5030284;28;20222;-69
2023/01/05 00:54:34;;;;;;;2.07;1.67;;;;;;;;;;5030218;28;20160;-70
2023/01/05 00:57:00;;;;;;;2.07;1.77;;;;;;;;;;5036925;28;20880;-70
2023/01/05 00:59:25;;;;;;;2.43;1.53;;;;;;;;;;5042542;28;20241;-70
2023/01/05 01:01:53;;;;;;;2.33;1.90;;;;;;;;;;5040693;28;20441;-70
2023/01/05 01:04:19;;;;;;;2.23;1.50;;;;;;;;;;5032005;28;20655;-68
2023/01/05 01:06:45;;;;;;;1.70;1.33;;;;;;;;;;5028186;28;20516;-70
2023/01/05 01:09:11;;;;;;;2.87;1.70;;;;;;;;;;5030931;28;20206;-68
2023/01/05 01:11:37;;;;;;;2.60;1.80;;;;;;;;;;5039475;28;20442;-69
2023/01/05 01:14:04;;;;;;;1.93;1.57;;;;;;;;;;5033128;28;20794;-70
2023/01/05 01:16:29;;;;;;;2.13;1.60;;;;;;;;;;5036394;28;20704;-69
2023/01/05 01:18:55;;;;;;;1.40;1.30;;;;;;;;;;5039823;28;20533;-70
2023/01/05 01:21:21;;;;;;;1.97;1.80;;;;;;;;;;5033040;28;20308;-69
2023/01/05 01:23:46;;;;;;;3.87;1.83;;;;;;;;;;5035797;28;20434;-69
2023/01/05 01:26:12;;;;;;;4.70;1.80;;;;;;;;;;5041059;28;20262;-69
2023/01/05 01:28:38;;;;;;;1.40;1.30;;;;;;;;;;5033520;28;20202;-69
2023/01/05 01:31:04;;;;;;;2.20;1.67;;;;;;;;;;5035124;28;20933;-68
2023/01/05 01:33:30;;;;;;;1.93;1.60;;;;;;;;;;5040664;28;20551;-69
2023/01/05 01:35:56;;;;;;;1.70;1.60;;;;;;;;;;5020869;28;20432;-69
2023/01/05 01:38:22;;;;;;;2.33;2.13;;;;;;;;;;5035956;28;20195;-70
2023/01/05 01:40:48;;;;;;;2.53;1.77;;;;;;;;;;5028008;28;20179;-69
2023/01/05 01:43:16;;;;;;;4.10;1.80;;;;;;;;;;5035805;28;20426;-69
2023/01/05 01:45:42;;;;;;;4.60;2.00;;;;;;;;;;5036454;28;21022;-69
2023/01/05 01:48:17;;;;;;;4.73;2.10;;;;;;;;;;5029203;28;20472;-69
2023/01/05 01:50:52;;;;;;;2.30;2.10;;;;;;;;;;5026397;28;20441;-69
2023/01/05 01:53:30;;;;;;;6.10;1.80;;;;;;;;;;5037108;28;20465;-69
2023/01/05 01:55:59;;;;;;;2.37;1.67;;;;;;;;;;5029571;28;20424;-69
2023/01/05 01:58:29;;;;;;;6.07;2.17;;;;;;;;;;5029652;28;20804;-69
2023/01/05 02:00:55;;;;;;;2.07;1.70;;;;;;;;;;5028698;28;20464;-69
2023/01/05 02:03:20;;;;;;;2.13;1.43;;;;;;;;;;5029995;28;20498;-69
2023/01/05 02:05:45;;;;;;;3.13;1.80;;;;;;;;;;5029766;28;20820;-69
2023/01/05 02:08:13;;;;;;;2.30;1.60;;;;;;;;;;5029559;28;20187;-68
2023/01/05 02:10:49;;;;;;;4.10;3.30;;;;;;;;;;5029139;28;20179;-70
2023/01/05 02:13:20;;;;;;;3.10;1.40;;;;;;;;;;5029539;28;20477;-69
2023/01/05 02:15:54;;;;;;;2.87;1.83;;;;;;;;;;5031418;28;20484;-69
2023/01/05 02:18:56;;;;;;;1.53;1.43;;;;;;;;;;5032387;28;20446;-69
2023/01/05 02:21:44;;;;;;;1.40;1.23;;;;;;;;;;5032597;28;20438;-68
2023/01/05 02:24:52;;;;;;;1.40;1.13;;;;;;;;;;5033433;28;20464;-68
2023/01/05 02:27:56;;;;;;;2.60;1.20;;;;;;;;;;5040318;28;20440;-70
2023/01/05 02:30:45;;;;;;;2.67;1.73;;;;;;;;;;5036145;28;20542;-69
2023/01/05 02:33:32;;;;;;;2.50;1.20;;;;;;;;;;5026116;28;20426;-70
2023/01/05 02:36:03;;;;;;;2.70;1.77;;;;;;;;;;5031984;28;20812;-69
2023/01/05 02:38:42;;;;;;;1.50;1.10;;;;;;;;;;5036480;28;20453;-70
2023/01/05 02:41:30;;;;;;;1.67;0.93;;;;;;;;;;5033434;28;20434;-70
2023/01/05 02:43:56;;;;;;;1.40;1.10;;;;;;;;;;5029376;28;20425;-68
2023/01/05 02:46:22;;;;;;;1.30;0.97;;;;;;;;;;5038430;28;21012;-69
2023/01/05 02:48:50;;;;;;;1.30;0.87;;;;;;;;;;5029097;28;20453;-69
2023/01/05 02:51:22;;;;;;;1.37;1.00;;;;;;;;;;5042627;28;20175;-68
2023/01/05 02:54:04;;;;;;;3.47;1.40;;;;;;;;;;5035321;28;20426;-69
2023/01/05 02:56:37;;;;;;;1.40;1.00;;;;;;;;;;5034790;28;20841;-70
2023/01/05 02:59:22;;;;;;;3.37;0.90;;;;;;;;;;5029542;28;20456;-68
2023/01/05 03:01:57;;;;;;;1.30;1.17;;;;;;;;;;5029050;28;20430;-68
2023/01/05 03:04:28;;;;;;;2.70;1.57;;;;;;;;;;5031546;28;20892;-68
2023/01/05 03:07:00;;;;;;;1.10;1.00;;;;;;;;;;5045045;28;20805;-68
2023/01/05 03:09:35;;;;;;;1.10;0.80;;;;;;;;;;5037897;28;20453;-68
2023/01/05 03:15:22;;;;;;;1.10;0.80;;;;;;;;;;5027164;28;20496;-68
2023/01/05 03:17:53;;;;;;;1.40;1.10;;;;;;;;;;5039931;28;20997;-70
2023/01/05 03:20:22;;;;;;;2.60;0.90;;;;;;;;;;5037128;28;20879;-68
2023/01/05 03:37:31;;;;;;;1.10;0.80;;;;;;;;;;5040091;28;20893;-67
2023/01/05 03:39:59;;;;;;;1.20;0.80;;;;;;;;;;5038225;28;20438;-69
2023/01/05 03:42:27;;;;;;;1.30;0.90;;;;;;;;;;5033899;28;20526;-68
2023/01/05 03:44:53;;;;;;;2.60;0.80;;;;;;;;;;5031861;28;21255;-67
2023/01/05 03:47:18;;;;;;;1.43;0.70;;;;;;;;;;5030108;28;20434;-68
2023/01/05 03:49:44;;;;;;;1.20;0.90;;;;;;;;;;5040879;28;20206;-70
2023/01/05 03:52:09;;;;;;;1.40;0.80;;;;;;;;;;5036171;28;20195;-67
2023/01/05 03:54:35;;;;;;;0.90;0.80;;;;;;;;;;5030379;28;20252;-67
2023/01/05 03:57:00;;;;;;;1.00;0.80;;;;;;;;;;5028775;28;20219;-66
2023/01/05 03:59:25;;;;;;;1.20;0.90;;;;;;;;;;5031165;28;20697;-68
2023/01/05 04:01:51;;;;;;;1.00;0.80;;;;;;;;;;5029759;28;20176;-68
2023/01/05 04:04:16;;;;;;;3.30;0.80;;;;;;;;;;5031348;28;20172;-68
2023/01/05 04:06:42;;;;;;;1.30;0.83;;;;;;;;;;5025699;28;20491;-69
2023/01/05 04:09:07;;;;;;;1.00;0.80;;;;;;;;;;5011272;28;20842;-69
2023/01/05 04:11:33;;;;;;;1.40;0.90;;;;;;;;;;5010789;28;20199;-68
2023/01/05 04:13:58;;;;;;;1.00;0.70;;;;;;;;;;5017687;28;20176;-68
2023/01/05 04:16:24;;;;;;;1.00;0.70;;;;;;;;;;5030634;28;20219;-68
2023/01/05 04:18:49;;;;;;;1.13;0.80;;;;;;;;;;5030801;28;20561;-67
2023/01/05 04:21:14;;;;;;;1.83;0.80;;;;;;;;;;5030037;28;20755;-68
2023/01/05 04:23:40;;;;;;;1.77;1.00;;;;;;;;;;5031571;28;20632;-69
2023/01/05 04:26:06;;;;;;;2.20;0.73;;;;;;;;;;5028926;28;20187;-68
2023/01/05 04:28:31;;;;;;;1.37;0.80;;;;;;;;;;5025790;28;20256;-68
2023/01/05 04:30:57;;;;;;;1.20;0.87;;;;;;;;;;5031636;28;20183;-68
2023/01/05 04:33:24;;;;;;;2.50;0.80;;;;;;;;;;5030077;28;20183;-68
2023/01/05 04:35:50;;;;;;;1.00;0.80;;;;;;;;;;5031602;28;20191;-68
2023/01/05 04:38:16;;;;;;;1.03;0.80;;;;;;;;;;5030053;28;20474;-69
2023/01/05 04:40:47;;;;;;;1.07;0.80;;;;;;;;;;5039658;28;20183;-68
2023/01/05 04:43:12;;;;;;;1.70;1.00;;;;;;;;;;5028595;28;20537;-68
2023/01/05 04:45:37;;;;;;;1.60;1.10;;;;;;;;;;5037590;28;20516;-68
2023/01/05 04:48:03;;;;;;;1.10;0.80;;;;;;;;;;5029394;28;20278;-69
2023/01/05 04:50:28;;;;;;;1.53;1.20;;;;;;;;;;5028706;28;20191;-70
2023/01/05 04:52:54;;;;;;;2.40;0.83;;;;;;;;;;5035599;28;20764;-69
2023/01/05 04:55:19;;;;;;;1.23;0.70;;;;;;;;;;5035329;28;20245;-69
2023/01/05 04:57:44;;;;;;;1.03;0.70;;;;;;;;;;5025587;28;20680;-70
2023/01/05 05:00:10;;;;;;;1.47;0.77;;;;;;;;;;5023502;28;20190;-70
2023/01/05 05:02:36;;;;;;;2.60;0.90;;;;;;;;;;5032305;28;20181;-70
2023/01/05 05:05:02;;;;;;;1.47;0.80;;;;;;;;;;5037463;28;20255;-70
2023/01/05 05:07:27;;;;;;;1.93;1.03;;;;;;;;;;5035034;28;20201;-70
2023/01/05 05:09:53;;;;;;;1.20;0.90;;;;;;;;;;5032145;28;20192;-70
2023/01/05 05:12:19;;;;;;;1.00;0.80;;;;;;;;;;5017158;28;20664;-69
2023/01/05 05:14:46;;;;;;;2.97;0.80;;;;;;;;;;5027134;28;20187;-70
2023/01/05 05:17:12;;;;;;;1.10;0.83;;;;;;;;;;5033340;28;20561;-70
2023/01/05 05:19:37;;;;;;;1.67;1.10;;;;;;;;;;5036079;28;21089;-69
2023/01/05 05:22:03;;;;;;;1.20;1.07;;;;;;;;;;5034566;28;20292;-69
2023/01/05 05:24:28;;;;;;;3.63;1.00;;;;;;;;;;5028915;28;20512;-69
2023/01/05 05:26:54;;;;;;;1.10;0.80;;;;;;;;;;5032188;28;22292;-69
2023/01/05 05:29:19;;;;;;;1.00;0.70;;;;;;;;;;5029407;28;20206;-70
2023/01/05 05:31:45;;;;;;;5.33;0.80;;;;;;;;;;5041991;28;20183;-69
2023/01/05 05:34:10;;;;;;;2.97;0.90;;;;;;;;;;5036018;28;20191;-68
2023/01/05 05:36:36;;;;;;;2.47;0.90;;;;;;;;;;5030555;28;20298;-68
2023/01/05 05:39:02;;;;;;;1.40;0.93;;;;;;;;;;5026683;28;20199;-68
2023/01/05 05:41:28;;;;;;;0.90;0.70;;;;;;;;;;5033001;28;20912;-69
2023/01/05 05:43:53;;;;;;;1.70;0.80;;;;;;;;;;5027837;28;20298;-68
2023/01/05 05:46:19;;;;;;;1.00;0.90;;;;;;;;;;5029344;28;20175;-69
2023/01/05 05:48:44;;;;;;;1.00;0.70;;;;;;;;;;5031528;28;20210;-68
2023/01/05 05:51:09;;;;;;;2.13;0.80;;;;;;;;;;5043683;28;20193;-69
2023/01/05 05:53:35;;;;;;;1.30;0.80;;;;;;;;;;5037103;28;20186;-69
2023/01/05 05:56:01;;;;;;;2.27;1.00;;;;;;;;;;5033156;28;20175;-69
2023/01/05 05:58:26;;;;;;;3.57;2.30;;;;;;;;;;5033357;28;20222;-69
2023/01/05 06:00:57;;;;;;;1.10;0.97;;;;;;;;;;5032193;28;20182;-69
2023/01/05 06:03:22;;;;;;;2.90;1.00;;;;;;;;;;5033591;28;20171;-69
2023/01/05 06:05:47;;;;;;;2.83;1.10;;;;;;;;;;5033480;28;20464;-69
2023/01/05 06:08:13;;;;;;;1.33;0.90;;;;;;;;;;5032895;28;20772;-70
2023/01/05 06:10:38;;;;;;;1.83;1.20;;;;;;;;;;5030702;28;20179;-69
2023/01/05 06:13:04;;;;;;;1.50;0.97;;;;;;;;;;5032891;28;20194;-69
2023/01/05 06:15:29;;;;;;;1.83;1.10;;;;;;;;;;5037861;28;20252;-68
2023/01/05 06:17:54;;;;;;;1.57;1.20;;;;;;;;;;5035709;28;20245;-69
2023/01/05 06:20:20;;;;;;;1.00;0.90;;;;;;;;;;5033342;28;20179;-69
2023/01/05 06:22:45;;;;;;;3.40;1.10;;;;;;;;;;5044090;28;20636;-69
2023/01/05 06:25:11;;;;;;;1.43;0.90;;;;;;;;;;5037607;28;20681;-69
2023/01/05 06:27:36;;;;;;;1.20;0.90;;;;;;;;;;5036625;28;20238;-68
2023/01/05 06:30:03;;;;;;;1.40;1.00;;;;;;;;;;5036019;28;20206;-69
2023/01/05 06:32:28;;;;;;;1.20;0.90;;;;;;;;;;5030149;28;20171;-69
2023/01/05 06:34:53;;;;;;;1.20;0.90;;;;;;;;;;5047311;28;20583;-68
2023/01/05 06:37:19;;;;;;;1.40;1.00;;;;;;;;;;5044994;28;20196;-68
2023/01/05 06:39:44;;;;;;;1.10;0.80;;;;;;;;;;5037998;28;20207;-68
2023/01/05 06:42:10;;;;;;;3.63;1.10;;;;;;;;;;5036269;28;20876;-69
2023/01/05 06:44:35;;;;;;;2.47;1.50;;;;;;;;;;5033998;28;20182;-68
2023/01/05 06:47:04;;;;;;;2.00;1.27;;;;;;;;;;5038987;28;20224;-68
2023/01/05 06:49:29;;;;;;;1.60;1.00;;;;;;;;;;5035711;28;20211;-68
2023/01/05 06:51:55;;;;;;;17.70;2.30;;;;;;;;;;5031694;28;20476;-67
2023/01/05 06:54:20;;;;;;;6.83;1.10;;;;;;;;;;5032105;28;20242;-67
2023/01/05 06:56:45;;;;;;;2.60;1.10;;;;;;;;;;5038187;28;20208;-68
2023/01/05 06:59:11;;;;;;;9.47;1.40;;;;;;;;;;5043463;28;20238;-69
2023/01/05 07:01:37;;;;;;;2.10;1.40;;;;;;;;;;5028549;28;20194;-69
2023/01/05 07:04:02;;;;;;;4.30;1.40;;;;;;;;;;5039678;28;20179;-69
2023/01/05 07:06:28;;;;;;;2.20;1.10;;;;;;;;;;5044442;28;20183;-69
2023/01/05 07:08:53;;;;;;;1.40;0.90;;;;;;;;;;5032063;28;20199;-68
2023/01/05 07:11:19;;;;;;;9.80;1.63;;;;;;;;;;5033552;28;20615;-69
2023/01/05 07:13:50;;;;;;;8.70;1.23;;;;;;;;;;5039072;28;20210;-69
2023/01/05 07:16:17;;;;;;;2.90;1.10;;;;;;;;;;5042049;28;20680;-69
2023/01/05 07:18:43;;;;;;;11.73;3.83;;;;;;;;;;5030343;28;21366;-69
2023/01/05 07:21:09;;;;;;;6.10;1.20;;;;;;;;;;5037900;28;20429;-68
2023/01/05 07:23:36;;;;;;;1.70;1.40;;;;;;;;;;5039342;28;20207;-68
2023/01/05 07:26:03;;;;;;;11.07;2.40;;;;;;;;;;5036020;28;20182;-67
2023/01/05 07:28:29;;;;;;;2.70;1.33;;;;;;;;;;5011071;28;20482;-67
2023/01/05 07:30:54;;;;;;;1.10;0.90;;;;;;;;;;5030645;28;20437;-68
2023/01/05 07:33:20;;;;;;;4.53;1.23;;;;;;;;;;5042021;28;20661;-68
2023/01/05 07:35:45;;;;;;;1.97;1.50;;;;;;;;;;5040502;28;20178;-68
2023/01/05 07:38:10;;;;;;;7.00;1.83;;;;;;;;;;5037144;28;20324;-68
2023/01/05 07:40:36;;;;;;;1.83;1.67;;;;;;;;;;5030363;28;20233;-69
2023/01/05 07:43:01;;;;;;;4.13;1.70;;;;;;;;;;5035809;28;20301;-68
2023/01/05 07:45:27;;;;;;;7.70;1.90;;;;;;;;;;5040870;28;20613;-68
2023/01/05 07:47:52;;;;;;;6.50;1.40;;;;;;;;;;5033486;28;20195;-68
2023/01/05 07:50:18;;;;;;;3.43;1.70;;;;;;;;;;5033770;28;20298;-70
2023/01/05 07:52:43;;;;;;;30.53;3.67;;;;;;;;;;5031919;28;20334;-69
2023/01/05 07:55:09;;;;;;;11.83;1.93;;;;;;;;;;5031110;28;20191;-70
2023/01/05 07:57:34;;;;;;;2.00;1.70;;;;;;;;;;5030694;28;20546;-69
2023/01/05 08:00:00;;;;;;;2.53;1.57;;;;;;;;;;5032846;28;20203;-69
2023/01/05 08:02:26;;;;;;;2.33;1.80;;;;;;;;;;5021948;28;20176;-69
2023/01/05 08:04:52;;;;;;;3.10;1.60;;;;;;;;;;5029466;28;20175;-67
2023/01/05 08:07:17;;;;;;;4.10;1.53;;;;;;;;;;5030071;28;20738;-67
2023/01/05 08:12:28;;;;;;;9.33;2.00;;;;;;;;;;5030268;28;20589;-69
2023/01/05 08:14:53;;;;;;;2.43;1.80;;;;;;;;;;5030365;28;20418;-69
2023/01/05 08:17:19;;;;;;;8.00;2.23;;;;;;;;;;5031038;28;20511;-69
2023/01/05 08:19:45;;;;;;;20.17;3.83;;;;;;;;;;5030804;28;20187;-69
2023/01/05 08:22:10;;;;;;;14.97;3.17;;;;;;;;;;5029938;28;20218;-69
2023/01/05 08:24:36;;;;;;;13.20;2.53;;;;;;;;;;5031807;28;20179;-67
2023/01/05 08:27:01;;;;;;;12.37;3.10;;;;;;;;;;5041407;28;20179;-68
2023/01/05 08:29:27;;;;;;;63.73;7.40;;;;;;;;;;5030980;28;20260;-68
2023/01/05 08:31:53;;;;;;;13.30;2.10;;;;;;;;;;5033291;28;20185;-68
2023/01/05 08:34:18;;;;;;;2.77;1.63;;;;;;;;;;5032956;28;20429;-67
2023/01/05 08:36:43;;;;;;;4.83;1.27;;;;;;;;;;5045393;28;20202;-67
2023/01/05 08:39:10;;;;;;;1.73;1.47;;;;;;;;;;5038174;28;20199;-67
2023/01/05 08:41:38;;;;;;;3.97;1.80;;;;;;;;;;5033404;28;20227;-68
2023/01/05 08:44:09;;;;;;;6.07;1.47;;;;;;;;;;5035734;28;20737;-68
2023/01/05 08:46:35;;;;;;;20.30;3.87;;;;;;;;;;5030310;28;20426;-67
2023/01/05 08:49:03;;;;;;;23.23;5.43;;;;;;;;;;5029061;28;20446;-68
2023/01/05 08:51:29;;;;;;;18.40;3.27;;;;;;;;;;5027170;28;20634;-67
2023/01/05 08:53:56;;;;;;;7.53;2.80;;;;;;;;;;5034250;28;21035;-67
2023/01/05 08:56:26;;;;;;;3.00;1.60;;;;;;;;;;5034335;28;20430;-68
2023/01/05 08:58:57;;;;;;;8.00;2.50;;;;;;;;;;5034165;28;20461;-68
2023/01/05 09:01:23;;;;;;;18.10;4.50;;;;;;;;;;5028274;28;20827;-67
2023/01/05 09:03:49;;;;;;;10.13;2.57;;;;;;;;;;5024326;28;20460;-66
2023/01/05 09:06:15;;;;;;;7.40;2.53;;;;;;;;;;5028721;28;20183;-67
2023/01/05 09:08:41;;;;;;;4.67;2.40;;;;;;;;;;5027224;28;20717;-68
2023/01/05 09:11:11;;;;;;;21.03;4.30;;;;;;;;;;5025209;28;20437;-67
2023/01/05 09:13:38;;;;;;;13.07;3.87;;;;;;;;;;5026818;28;20433;-68
2023/01/05 09:16:05;;;;;;;6.40;2.70;;;;;;;;;;5030979;28;20734;-66
2023/01/05 09:18:31;;;;;;;107.63;11.20;;;;;;;;;;5039576;28;20462;-66
2023/01/05 09:20:56;;;;;;;7.50;1.90;;;;;;;;;;5030278;28;20441;-67
2023/01/05 09:23:21;;;;;;;4.30;2.70;;;;;;;;;;5032300;28;20179;-67
2023/01/05 09:25:47;;;;;;;3.60;2.10;;;;;;;;;;5032565;28;20187;-66
2023/01/05 09:28:12;;;;;;;3.47;2.40;;;;;;;;;;5030887;28;20260;-67
2023/01/05 09:30:37;;;;;;;3.53;3.10;;;;;;;;;;5027363;28;20179;-67
2023/01/05 09:33:03;;;;;;;5.53;3.53;;;;;;;;;;5035753;28;20189;-68
2023/01/05 09:35:28;;;;;;;5.73;3.23;;;;;;;;;;5028842;28;20244;-70
2023/01/05 09:37:54;;;;;;;6.10;3.00;;;;;;;;;;5031386;28;20683;-66
2023/01/05 09:40:20;;;;;;;27.70;4.50;;;;;;;;;;5033053;28;20179;-70
2023/01/05 09:42:47;;;;;;;5.00;2.77;;;;;;;;;;5028471;28;20194;-68
2023/01/05 09:45:21;;;;;;;38.40;4.93;;;;;;;;;;5018491;28;20434;-68
2023/01/05 09:47:47;;;;;;;3.27;2.00;;;;;;;;;;5024243;28;20457;-67
2023/01/05 09:50:29;;;;;;;3.90;2.40;;;;;;;;;;5029063;28;20452;-69
2023/01/05 09:52:58;;;;;;;8.10;2.90;;;;;;;;;;5029630;28;20506;-68
2023/01/05 09:55:25;;;;;;;17.30;3.43;;;;;;;;;;5029531;28;20410;-68
2023/01/05 09:57:56;;;;;;;4.17;1.87;;;;;;;;;;5029681;28;20544;-67
2023/01/05 10:00:24;;;;;;;5.13;1.87;;;;;;;;;;5028471;28;20472;-65
2023/01/05 10:02:54;;;;;;;6.87;5.97;;;;;;;;;;5029509;28;20488;-68
2023/01/05 10:05:21;;;;;;;6.30;2.37;;;;;;;;;;5029181;28;20410;-67
2023/01/05 10:07:56;;;;;;;4.03;2.03;;;;;;;;;;5027115;28;20442;-66
2023/01/05 10:10:43;;;;;;;3.93;2.00;;;;;;;;;;5023861;28;20911;-67
2023/01/05 10:13:21;;;;;;;15.50;3.37;;;;;;;;;;5022003;28;20773;-68
2023/01/05 10:15:52;;;;;;;10.27;2.00;;;;;;;;;;5022513;28;20586;-68
2023/01/05 10:18:22;;;;;;;3.77;1.30;;;;;;;;;;5024048;28;20476;-67
2023/01/05 10:21:01;;;;;;;1.90;1.80;;;;;;;;;;5028346;28;20479;-66
2023/01/05 10:23:54;;;;;;;6.93;2.17;;;;;;;;;;5026731;28;20501;-67
2023/01/05 10:26:33;;;;;;;1.83;1.30;;;;;;;;;;5038431;28;20517;-67
2023/01/05 10:29:24;;;;;;;1.53;1.13;;;;;;;;;;5034321;28;20461;-67
2023/01/05 10:32:13;;;;;;;7.97;4.40;;;;;;;;;;5013335;28;20539;-67
2023/01/05 10:34:47;;;;;;;20.60;5.50;;;;;;;;;;5028592;28;20430;-68
2023/01/05 10:37:46;;;;;;;24.70;4.00;;;;;;;;;;5035344;28;20547;-67
2023/01/05 10:40:21;;;;;;;11.70;4.10;;;;;;;;;;5038334;28;20448;-68
2023/01/05 10:43:24;;;;;;;10.90;4.00;;;;;;;;;;5034198;28;20444;-67
2023/01/05 10:45:50;;;;;;;20.10;5.10;;;;;;;;;;5027771;28;20428;-68
2023/01/05 10:48:20;;;;;;;15.87;4.67;;;;;;;;;;5032123;28;20533;-69
2023/01/05 10:50:47;;;;;;;14.53;2.53;;;;;;;;;;5024448;28;20184;-66
2023/01/05 10:53:46;;;;;;;19.60;4.73;;;;;;;;;;5028185;28;20437;-68
2023/01/05 10:56:14;;;;;;;16.50;3.97;;;;;;;;;;4950093;29;20442;-68
2023/01/05 10:58:45;;;;;;;8.00;2.50;;;;;;;;;;4950127;29;20874;-67
2023/01/05 11:01:18;;;;;;;13.53;4.30;;;;;;;;;;4946629;28;20473;-68
2023/01/05 11:03:47;;;;;;;10.63;2.90;;;;;;;;;;4949458;29;20536;-67
2023/01/05 11:06:24;;;;;;;30.40;3.60;;;;;;;;;;4945236;29;20434;-68
2023/01/05 11:08:50;;;;;;;24.53;4.17;;;;;;;;;;4942124;28;20687;-68
2023/01/05 11:11:25;;;;;;;79.90;9.87;;;;;;;;;;4948106;29;20449;-68
2023/01/05 11:13:57;;;;;;;54.17;7.67;;;;;;;;;;4949209;28;20441;-67
2023/01/05 11:16:23;;;;;;;2.93;1.93;;;;;;;;;;4950212;28;20438;-68
2023/01/05 11:18:56;;;;;;;5.90;3.23;;;;;;;;;;4947055;29;20954;-67
2023/01/05 11:21:25;;;;;;;3.73;2.13;;;;;;;;;;4943617;29;20302;-67
2023/01/05 11:23:56;;;;;;;6.20;2.73;;;;;;;;;;4944486;29;20445;-68
2023/01/05 11:26:23;;;;;;;14.67;3.70;;;;;;;;;;4941851;28;20445;-66
2023/01/05 11:29:24;;;;;;;29.20;4.73;;;;;;;;;;4948450;29;20762;-68
2023/01/05 11:31:52;;;;;;;8.07;1.90;;;;;;;;;;4924928;29;20462;-67
2023/01/05 11:34:29;;;;;;;1.70;1.60;;;;;;;;;;5015151;28;20446;-67
2023/01/05 11:37:01;;;;;;;2.07;1.87;;;;;;;;;;5032856;28;20856;-68
2023/01/05 11:39:30;;;;;;;4.90;1.73;;;;;;;;;;5028530;28;20461;-68
2023/01/05 11:42:15;;;;;;;2.47;1.57;;;;;;;;;;5028476;28;20441;-66
2023/01/05 11:44:48;;;;;;;32.17;5.83;;;;;;;;;;5029300;28;20430;-67
2023/01/05 11:47:39;;;;;;;2.30;1.40;;;;;;;;;;5030050;28;20525;-70
2023/01/05 11:50:13;;;;;;;3.97;2.10;;;;;;;;;;5031451;28;20457;-67
2023/01/05 11:52:45;;;;;;;16.00;3.07;;;;;;;;;;5031245;28;21113;-67
2023/01/05 11:55:22;;;;;;;6.40;2.47;;;;;;;;;;5028679;28;20432;-67
2023/01/05 11:57:52;;;;;;;4.10;2.10;;;;;;;;;;5029933;28;20473;-69
2023/01/05 12:00:24;;;;;;;4.73;2.30;;;;;;;;;;5024303;28;20525;-69
2023/01/05 12:02:59;;;;;;;12.63;3.30;;;;;;;;;;5022495;28;20986;-68
2023/01/05 12:05:39;;;;;;;7.90;2.10;;;;;;;;;;5023699;28;21126;-66
2023/01/05 12:08:13;;;;;;;3.90;2.20;;;;;;;;;;5024565;28;20442;-65
2023/01/05 12:11:14;;;;;;;2.33;1.80;;;;;;;;;;5025219;28;20426;-66
2023/01/05 12:13:54;;;;;;;4.07;2.03;;;;;;;;;;5022072;28;20525;-67
2023/01/05 12:16:41;;;;;;;6.33;2.40;;;;;;;;;;5028304;28;20434;-67
2023/01/05 12:19:21;;;;;;;10.00;2.67;;;;;;;;;;5028070;28;20464;-66
2023/01/05 12:21:57;;;;;;;4.37;2.43;;;;;;;;;;5024182;28;20441;-66
2023/01/05 12:24:56;;;;;;;5.77;2.63;;;;;;;;;;5029366;28;20483;-67
2023/01/05 12:27:31;;;;;;;51.40;6.17;;;;;;;;;;5029042;28;20434;-66
2023/01/05 12:30:12;;;;;;;15.30;2.73;;;;;;;;;;5020898;28;20817;-66
2023/01/05 12:32:40;;;;;;;11.00;3.17;;;;;;;;;;5027884;28;20501;-66
2023/01/05 12:35:27;;;;;;;69.23;9.10;;;;;;;;;;5030081;28;20411;-68
2023/01/05 12:38:05;;;;;;;20.17;4.83;;;;;;;;;;5024624;28;20463;-68
2023/01/05 12:40:41;;;;;;;7.93;3.60;;;;;;;;;;5028642;28;20402;-66
2023/01/05 12:43:09;;;;;;;7.13;2.60;;;;;;;;;;5029085;28;20428;-66
2023/01/05 12:46:07;;;;;;;11.10;3.90;;;;;;;;;;5029511;28;20586;-67
2023/01/05 12:48:45;;;;;;;19.40;4.10;;;;;;;;;;5018499;28;20457;-67
2023/01/05 12:51:33;;;;;;;4.60;2.53;;;;;;;;;;5028330;28;20436;-67
2023/01/05 12:54:20;;;;;;;11.40;2.63;;;;;;;;;;5028117;28;20781;-66
2023/01/05 12:56:59;;;;;;;14.73;3.00;;;;;;;;;;5027670;28;20461;-66
2023/01/05 13:00:01;;;;;;;2.80;2.20;;;;;;;;;;5024094;28;20938;-67
2023/01/05 13:02:39;;;;;;;8.63;2.40;;;;;;;;;;5019404;28;20433;-66
2023/01/05 13:05:26;;;;;;;5.43;2.27;;;;;;;;;;5028622;28;20445;-67
2023/01/05 13:08:00;;;;;;;4.27;2.60;;;;;;;;;;5020988;28;21000;-67
2023/01/05 13:10:43;;;;;;;10.80;3.33;;;;;;;;;;5021101;28;20464;-66
2023/01/05 13:13:15;;;;;;;13.33;4.53;;;;;;;;;;5028177;28;20402;-65
2023/01/05 13:15:59;;;;;;;13.23;2.93;;;;;;;;;;5028825;28;20844;-66
2023/01/05 13:18:25;;;;;;;4.23;2.63;;;;;;;;;;5027672;28;20469;-67
2023/01/05 13:20:57;;;;;;;8.80;2.60;;;;;;;;;;5025880;28;21205;-66
2023/01/05 13:23:28;;;;;;;5.73;3.00;;;;;;;;;;5020399;28;20426;-65
2023/01/05 13:25:58;;;;;;;21.20;4.77;;;;;;;;;;5023282;28;20443;-65
2023/01/05 13:28:24;;;;;;;21.70;4.50;;;;;;;;;;5030987;28;20476;-66
2023/01/05 13:30:59;;;;;;;13.53;2.57;;;;;;;;;;5025926;28;20418;-66
2023/01/05 13:33:24;;;;;;;21.87;5.50;;;;;;;;;;5028061;28;20512;-66
2023/01/05 13:36:03;;;;;;;3.97;1.80;;;;;;;;;;5025098;28;20521;-65
2023/01/05 13:38:28;;;;;;;61.23;7.70;;;;;;;;;;5026476;28;20594;-66
2023/01/05 13:41:23;;;;;;;10.13;2.80;;;;;;;;;;5027549;28;20414;-68
2023/01/05 13:44:10;;;;;;;7.20;2.70;;;;;;;;;;5008923;28;20199;-66
2023/01/05 13:47:03;;;;;;;5.60;2.10;;;;;;;;;;5025256;28;20797;-66
2023/01/05 13:49:57;;;;;;;5.27;2.77;;;;;;;;;;5027505;28;20449;-66
2023/01/05 13:52:28;;;;;;;14.03;2.17;;;;;;;;;;5028080;28;20508;-66
2023/01/05 13:55:00;;;;;;;11.13;3.50;;;;;;;;;;5028551;28;20411;-66
2023/01/05 13:57:28;;;;;;;33.43;5.03;;;;;;;;;;5023243;28;20466;-65
2023/01/05 13:59:58;;;;;;;8.80;2.83;;;;;;;;;;5026461;28;20907;-67
2023/01/05 14:02:27;;;;;;;8.03;3.37;;;;;;;;;;5024742;28;20426;-67
2023/01/05 14:04:53;;;;;;;14.40;3.17;;;;;;;;;;5019025;28;20466;-66
2023/01/05 14:07:18;;;;;;;6.40;3.30;;;;;;;;;;5020086;28;20843;-65
2023/01/05 14:09:47;;;;;;;7.00;2.43;;;;;;;;;;5024769;28;20246;-66
2023/01/05 14:12:15;;;;;;;5.13;2.43;;;;;;;;;;5030724;28;20171;-66
2023/01/05 14:14:58;;;;;;;9.93;3.20;;;;;;;;;;5030070;28;20422;-66
2023/01/05 14:17:52;;;;;;;11.67;3.30;;;;;;;;;;5030016;28;20461;-66
2023/01/05 14:20:40;;;;;;;6.23;2.43;;;;;;;;;;5027848;28;20443;-67
2023/01/05 14:23:21;;;;;;;11.10;5.67;;;;;;;;;;5012096;28;20411;-69
2023/01/05 14:25:56;;;;;;;10.43;3.90;;;;;;;;;;5011601;28;20501;-66
2023/01/05 14:28:27;;;;;;;5.93;2.30;;;;;;;;;;5020656;28;20453;-66
2023/01/05 14:31:15;;;;;;;5.30;2.37;;;;;;;;;;5019440;28;20434;-66
2023/01/05 14:33:51;;;;;;;29.37;4.33;;;;;;;;;;5012475;28;20833;-66
2023/01/05 14:36:39;;;;;;;10.13;2.87;;;;;;;;;;5027519;28;20491;-67
2023/01/05 14:39:20;;;;;;;6.00;3.00;;;;;;;;;;5030012;28;20623;-66
2023/01/05 14:42:02;;;;;;;3.90;2.50;;;;;;;;;;5029080;28;20406;-66
2023/01/05 14:44:35;;;;;;;6.07;2.47;;;;;;;;;;5022537;28;20430;-67
2023/01/05 14:47:01;;;;;;;4.07;3.20;;;;;;;;;;5026942;28;20460;-67
2023/01/05 14:49:34;;;;;;;4.90;3.10;;;;;;;;;;5031578;28;20472;-67
2023/01/05 14:52:01;;;;;;;15.67;3.90;;;;;;;;;;5030073;28;20438;-68
2023/01/05 14:54:55;;;;;;;6.40;2.70;;;;;;;;;;5030809;28;20493;-65
2023/01/05 14:57:24;;;;;;;13.83;5.40;;;;;;;;;;5029620;28;20899;-67
2023/01/05 15:00:11;;;;;;;30.83;5.47;;;;;;;;;;5031703;28;20433;-66
2023/01/05 15:02:48;;;;;;;13.60;3.63;;;;;;;;;;5030551;28;21112;-66
2023/01/05 15:05:16;;;;;;;18.47;4.67;;;;;;;;;;5032514;28;20437;-65
2023/01/05 15:07:50;;;;;;;20.73;4.47;;;;;;;;;;5026888;28;20469;-67
2023/01/05 15:10:32;;;;;;;13.90;4.50;;;;;;;;;;5021268;28;20417;-67
2023/01/05 15:13:24;;;;;;;18.97;4.00;;;;;;;;;;5026906;28;20457;-67
2023/01/05 15:16:12;;;;;;;17.90;5.00;;;;;;;;;;5026042;28;20426;-66
2023/01/05 15:18:56;;;;;;;7.73;4.50;;;;;;;;;;5032128;28;20466;-67
2023/01/05 15:21:52;;;;;;;9.30;3.80;;;;;;;;;;5026978;28;20465;-65
2023/01/05 15:24:57;;;;;;;15.23;6.20;;;;;;;;;;5028634;28;20437;-67
2023/01/05 15:27:37;;;;;;;45.73;7.57;;;;;;;;;;5026194;28;20461;-66
2023/01/05 15:30:23;;;;;;;9.33;3.50;;;;;;;;;;5025954;28;20484;-67
2023/01/05 15:32:56;;;;;;;61.80;10.03;;;;;;;;;;5024067;28;20434;-68
2023/01/05 15:35:39;;;;;;;9.83;2.67;;;;;;;;;;5028363;28;20418;-67
2023/01/05 15:38:23;;;;;;;10.53;4.37;;;;;;;;;;5027277;28;20469;-67